sensor_id;sensor_type;location;lat;lon;timestamp;P1;durP1;ratioP1;P2;durP2;ratioP2
48685;SDS011;34485;51.536;3.816;2023-10-31T00:01:50;22.13;;;10.70;;
48685;SDS011;34485;51.536;3.816;2023-10-31T00:04:16;15.40;;;10.27;;
48685;SDS011;34485;51.536;3.816;2023-10-31T00:06:41;24.08;;;8.90;;
48685;SDS011;34485;51.536;3.816;2023-10-31T00:09:07;16.20;;;7.63;;
48685;SDS011;34485;51.536;3.816;2023-10-31T00:14:04;23.25;;;8.60;;
48685;SDS011;34485;51.536;3.816;2023-10-31T00:16:30;16.23;;;8.17;;
48685;SDS011;34485;51.536;3.816;2023-10-31T00:18:56;13.73;;;8.52;;
48685;SDS011;34485;51.536;3.816;2023-10-31T00:21:22;17.35;;;8.55;;
48685;SDS011;34485;51.536;3.816;2023-10-31T00:23:48;18.33;;;8.97;;
48685;SDS011;34485;51.536;3.816;2023-10-31T00:26:14;28.35;;;9.55;;
48685;SDS011;34485;51.536;3.816;2023-10-31T00:28:40;22.13;;;11.68;;
48685;SDS011;34485;51.536;3.816;2023-10-31T00:31:06;20.27;;;9.87;;
48685;SDS011;34485;51.536;3.816;2023-10-31T00:33:33;18.35;;;11.80;;
48685;SDS011;34485;51.536;3.816;2023-10-31T00:36:02;36.03;;;12.75;;
48685;SDS011;34485;51.536;3.816;2023-10-31T00:38:28;23.50;;;12.37;;
48685;SDS011;34485;51.536;3.816;2023-10-31T00:40:53;22.53;;;12.03;;
48685;SDS011;34485;51.536;3.816;2023-10-31T00:43:19;35.87;;;13.90;;
48685;SDS011;34485;51.536;3.816;2023-10-31T00:45:45;24.88;;;12.88;;
48685;SDS011;34485;51.536;3.816;2023-10-31T00:48:10;20.10;;;11.87;;
48685;SDS011;34485;51.536;3.816;2023-10-31T00:50:36;26.55;;;10.38;;
48685;SDS011;34485;51.536;3.816;2023-10-31T00:53:01;23.30;;;9.10;;
48685;SDS011;34485;51.536;3.816;2023-10-31T00:55:27;23.03;;;8.30;;
48685;SDS011;34485;51.536;3.816;2023-10-31T00:57:53;17.33;;;6.80;;
48685;SDS011;34485;51.536;3.816;2023-10-31T01:00:18;13.53;;;7.03;;
48685;SDS011;34485;51.536;3.816;2023-10-31T01:02:44;14.38;;;6.28;;
48685;SDS011;34485;51.536;3.816;2023-10-31T01:05:10;12.67;;;6.97;;
48685;SDS011;34485;51.536;3.816;2023-10-31T01:07:36;17.65;;;6.50;;
48685;SDS011;34485;51.536;3.816;2023-10-31T01:10:02;10.30;;;6.45;;
48685;SDS011;34485;51.536;3.816;2023-10-31T01:12:28;17.27;;;6.70;;
48685;SDS011;34485;51.536;3.816;2023-10-31T01:14:54;13.60;;;6.75;;
48685;SDS011;34485;51.536;3.816;2023-10-31T01:17:20;18.58;;;7.57;;
48685;SDS011;34485;51.536;3.816;2023-10-31T01:19:46;19.20;;;7.70;;
48685;SDS011;34485;51.536;3.816;2023-10-31T01:22:12;12.07;;;7.30;;
48685;SDS011;34485;51.536;3.816;2023-10-31T01:24:37;12.47;;;4.80;;
48685;SDS011;34485;51.536;3.816;2023-10-31T01:27:03;12.60;;;4.18;;
48685;SDS011;34485;51.536;3.816;2023-10-31T01:29:29;6.80;;;4.23;;
48685;SDS011;34485;51.536;3.816;2023-10-31T01:31:55;9.05;;;3.33;;
48685;SDS011;34485;51.536;3.816;2023-10-31T01:34:20;9.27;;;3.93;;
48685;SDS011;34485;51.536;3.816;2023-10-31T01:36:46;8.13;;;3.75;;
48685;SDS011;34485;51.536;3.816;2023-10-31T01:39:12;8.47;;;5.23;;
48685;SDS011;34485;51.536;3.816;2023-10-31T01:41:39;10.50;;;5.93;;
48685;SDS011;34485;51.536;3.816;2023-10-31T01:44:06;11.73;;;5.47;;
48685;SDS011;34485;51.536;3.816;2023-10-31T01:46:32;10.88;;;7.30;;
48685;SDS011;34485;51.536;3.816;2023-10-31T01:48:58;19.40;;;11.03;;
48685;SDS011;34485;51.536;3.816;2023-10-31T01:51:23;17.85;;;13.20;;
48685;SDS011;34485;51.536;3.816;2023-10-31T01:53:50;27.30;;;15.47;;
48685;SDS011;34485;51.536;3.816;2023-10-31T01:56:17;25.13;;;16.33;;
48685;SDS011;34485;51.536;3.816;2023-10-31T01:58:44;22.95;;;16.65;;
48685;SDS011;34485;51.536;3.816;2023-10-31T02:01:11;25.00;;;13.75;;
48685;SDS011;34485;51.536;3.816;2023-10-31T02:03:37;16.15;;;13.38;;
48685;SDS011;34485;51.536;3.816;2023-10-31T02:06:03;16.07;;;12.47;;
48685;SDS011;34485;51.536;3.816;2023-10-31T02:08:30;17.33;;;11.82;;
48685;SDS011;34485;51.536;3.816;2023-10-31T02:10:55;18.70;;;11.40;;
48685;SDS011;34485;51.536;3.816;2023-10-31T02:13:22;17.95;;;10.90;;
48685;SDS011;34485;51.536;3.816;2023-10-31T02:15:47;19.33;;;12.43;;
48685;SDS011;34485;51.536;3.816;2023-10-31T02:18:13;18.23;;;11.52;;
48685;SDS011;34485;51.536;3.816;2023-10-31T02:20:39;18.67;;;11.82;;
48685;SDS011;34485;51.536;3.816;2023-10-31T02:23:05;21.80;;;12.80;;
48685;SDS011;34485;51.536;3.816;2023-10-31T02:25:31;18.65;;;13.30;;
48685;SDS011;34485;51.536;3.816;2023-10-31T02:27:57;18.35;;;12.43;;
48685;SDS011;34485;51.536;3.816;2023-10-31T02:30:23;28.08;;;13.55;;
48685;SDS011;34485;51.536;3.816;2023-10-31T02:32:49;25.07;;;14.53;;
48685;SDS011;34485;51.536;3.816;2023-10-31T02:35:15;24.48;;;14.32;;
48685;SDS011;34485;51.536;3.816;2023-10-31T02:37:42;32.45;;;14.32;;
48685;SDS011;34485;51.536;3.816;2023-10-31T02:40:08;22.85;;;12.77;;
48685;SDS011;34485;51.536;3.816;2023-10-31T02:42:35;24.03;;;11.80;;
48685;SDS011;34485;51.536;3.816;2023-10-31T02:45:00;17.13;;;10.50;;
48685;SDS011;34485;51.536;3.816;2023-10-31T02:47:26;18.60;;;10.47;;
48685;SDS011;34485;51.536;3.816;2023-10-31T02:49:51;19.20;;;10.13;;
48685;SDS011;34485;51.536;3.816;2023-10-31T02:52:17;19.43;;;8.37;;
48685;SDS011;34485;51.536;3.816;2023-10-31T02:54:43;12.57;;;7.73;;
48685;SDS011;34485;51.536;3.816;2023-10-31T02:57:08;20.90;;;7.95;;
48685;SDS011;34485;51.536;3.816;2023-10-31T02:59:35;15.05;;;8.13;;
48685;SDS011;34485;51.536;3.816;2023-10-31T03:02:00;11.97;;;8.47;;
48685;SDS011;34485;51.536;3.816;2023-10-31T03:04:26;16.00;;;8.30;;
48685;SDS011;34485;51.536;3.816;2023-10-31T03:06:52;14.20;;;9.43;;
48685;SDS011;34485;51.536;3.816;2023-10-31T03:09:17;21.37;;;11.10;;
48685;SDS011;34485;51.536;3.816;2023-10-31T03:14:12;23.48;;;11.65;;
48685;SDS011;34485;51.536;3.816;2023-10-31T03:16:38;27.53;;;10.93;;
48685;SDS011;34485;51.536;3.816;2023-10-31T03:19:04;33.88;;;13.50;;
48685;SDS011;34485;51.536;3.816;2023-10-31T03:21:30;36.38;;;12.90;;
48685;SDS011;34485;51.536;3.816;2023-10-31T03:23:55;40.07;;;13.43;;
48685;SDS011;34485;51.536;3.816;2023-10-31T03:26:21;37.50;;;12.65;;
48685;SDS011;34485;51.536;3.816;2023-10-31T03:28:47;30.63;;;11.23;;
48685;SDS011;34485;51.536;3.816;2023-10-31T03:31:14;37.83;;;13.02;;
48685;SDS011;34485;51.536;3.816;2023-10-31T03:33:40;46.13;;;12.90;;
48685;SDS011;34485;51.536;3.816;2023-10-31T03:36:06;20.15;;;11.60;;
48685;SDS011;34485;51.536;3.816;2023-10-31T03:38:33;13.05;;;7.15;;
48685;SDS011;34485;51.536;3.816;2023-10-31T03:41:01;10.03;;;4.80;;
48685;SDS011;34485;51.536;3.816;2023-10-31T03:43:27;7.90;;;4.68;;
48685;SDS011;34485;51.536;3.816;2023-10-31T03:45:53;8.73;;;4.35;;
48685;SDS011;34485;51.536;3.816;2023-10-31T03:48:19;4.83;;;4.37;;
48685;SDS011;34485;51.536;3.816;2023-10-31T03:50:45;9.57;;;4.32;;
48685;SDS011;34485;51.536;3.816;2023-10-31T03:53:11;4.13;;;2.88;;
48685;SDS011;34485;51.536;3.816;2023-10-31T03:55:37;4.17;;;2.73;;
48685;SDS011;34485;51.536;3.816;2023-10-31T03:58:03;7.18;;;3.10;;
48685;SDS011;34485;51.536;3.816;2023-10-31T04:00:29;6.80;;;3.40;;
48685;SDS011;34485;51.536;3.816;2023-10-31T04:02:54;8.93;;;2.80;;
48685;SDS011;34485;51.536;3.816;2023-10-31T04:05:20;42.53;;;4.30;;
48685;SDS011;34485;51.536;3.816;2023-10-31T04:07:47;4.78;;;2.47;;
48685;SDS011;34485;51.536;3.816;2023-10-31T04:10:14;7.88;;;2.95;;
48685;SDS011;34485;51.536;3.816;2023-10-31T04:12:40;5.13;;;2.87;;
48685;SDS011;34485;51.536;3.816;2023-10-31T04:15:07;7.30;;;4.38;;
48685;SDS011;34485;51.536;3.816;2023-10-31T04:17:33;7.32;;;4.15;;
48685;SDS011;34485;51.536;3.816;2023-10-31T04:19:59;6.90;;;4.20;;
48685;SDS011;34485;51.536;3.816;2023-10-31T04:22:25;10.00;;;3.97;;
48685;SDS011;34485;51.536;3.816;2023-10-31T04:24:50;9.50;;;3.50;;
48685;SDS011;34485;51.536;3.816;2023-10-31T04:27:16;6.80;;;3.17;;
48685;SDS011;34485;51.536;3.816;2023-10-31T04:29:41;3.03;;;2.73;;
48685;SDS011;34485;51.536;3.816;2023-10-31T04:32:07;6.38;;;2.70;;
48685;SDS011;34485;51.536;3.816;2023-10-31T04:34:33;8.80;;;2.63;;
48685;SDS011;34485;51.536;3.816;2023-10-31T04:36:58;4.78;;;2.58;;
48685;SDS011;34485;51.536;3.816;2023-10-31T04:39:24;6.50;;;2.37;;
48685;SDS011;34485;51.536;3.816;2023-10-31T04:41:49;3.67;;;2.33;;
48685;SDS011;34485;51.536;3.816;2023-10-31T04:44:15;5.05;;;2.75;;
48685;SDS011;34485;51.536;3.816;2023-10-31T04:46:41;3.50;;;2.80;;
48685;SDS011;34485;51.536;3.816;2023-10-31T04:49:07;7.50;;;2.83;;
48685;SDS011;34485;51.536;3.816;2023-10-31T04:51:34;10.85;;;4.32;;
48685;SDS011;34485;51.536;3.816;2023-10-31T04:54:00;5.05;;;4.38;;
48685;SDS011;34485;51.536;3.816;2023-10-31T04:56:26;10.43;;;7.67;;
48685;SDS011;34485;51.536;3.816;2023-10-31T04:58:52;13.57;;;10.23;;
48685;SDS011;34485;51.536;3.816;2023-10-31T05:01:18;15.57;;;12.70;;
48685;SDS011;34485;51.536;3.816;2023-10-31T05:03:44;21.17;;;15.32;;
48685;SDS011;34485;51.536;3.816;2023-10-31T05:06:10;25.52;;;18.63;;
48685;SDS011;34485;51.536;3.816;2023-10-31T05:08:35;25.37;;;18.93;;
48685;SDS011;34485;51.536;3.816;2023-10-31T05:11:01;29.10;;;20.63;;
48685;SDS011;34485;51.536;3.816;2023-10-31T05:13:27;23.27;;;18.00;;
48685;SDS011;34485;51.536;3.816;2023-10-31T05:15:53;24.20;;;17.38;;
48685;SDS011;34485;51.536;3.816;2023-10-31T05:18:19;25.88;;;15.55;;
48685;SDS011;34485;51.536;3.816;2023-10-31T05:20:45;16.80;;;14.63;;
48685;SDS011;34485;51.536;3.816;2023-10-31T05:23:10;20.42;;;13.70;;
48685;SDS011;34485;51.536;3.816;2023-10-31T05:25:36;15.07;;;9.63;;
48685;SDS011;34485;51.536;3.816;2023-10-31T05:28:02;17.70;;;8.05;;
48685;SDS011;34485;51.536;3.816;2023-10-31T05:30:28;12.63;;;8.65;;
48685;SDS011;34485;51.536;3.816;2023-10-31T05:32:54;21.53;;;9.10;;
48685;SDS011;34485;51.536;3.816;2023-10-31T05:35:20;16.98;;;9.10;;
48685;SDS011;34485;51.536;3.816;2023-10-31T05:37:46;15.52;;;9.57;;
48685;SDS011;34485;51.536;3.816;2023-10-31T05:40:12;15.57;;;8.97;;
48685;SDS011;34485;51.536;3.816;2023-10-31T05:42:39;17.43;;;8.23;;
48685;SDS011;34485;51.536;3.816;2023-10-31T05:45:05;11.23;;;7.25;;
48685;SDS011;34485;51.536;3.816;2023-10-31T05:47:30;11.73;;;6.63;;
48685;SDS011;34485;51.536;3.816;2023-10-31T05:49:57;14.85;;;5.78;;
48685;SDS011;34485;51.536;3.816;2023-10-31T05:52:27;16.97;;;6.90;;
48685;SDS011;34485;51.536;3.816;2023-10-31T05:54:53;17.65;;;7.30;;
48685;SDS011;34485;51.536;3.816;2023-10-31T05:57:19;16.17;;;7.00;;
48685;SDS011;34485;51.536;3.816;2023-10-31T05:59:44;19.90;;;6.97;;
48685;SDS011;34485;51.536;3.816;2023-10-31T06:02:10;17.53;;;7.83;;
48685;SDS011;34485;51.536;3.816;2023-10-31T06:04:36;20.17;;;7.80;;
48685;SDS011;34485;51.536;3.816;2023-10-31T06:07:01;17.67;;;7.20;;
48685;SDS011;34485;51.536;3.816;2023-10-31T06:09:27;13.25;;;7.32;;
48685;SDS011;34485;51.536;3.816;2023-10-31T06:11:53;16.20;;;7.55;;
48685;SDS011;34485;51.536;3.816;2023-10-31T06:14:19;13.43;;;7.20;;
48685;SDS011;34485;51.536;3.816;2023-10-31T06:16:45;18.63;;;7.37;;
48685;SDS011;34485;51.536;3.816;2023-10-31T06:19:10;23.15;;;9.05;;
48685;SDS011;34485;51.536;3.816;2023-10-31T06:21:36;18.63;;;9.63;;
48685;SDS011;34485;51.536;3.816;2023-10-31T06:24:03;25.67;;;8.93;;
48685;SDS011;34485;51.536;3.816;2023-10-31T06:26:29;16.58;;;8.02;;
48685;SDS011;34485;51.536;3.816;2023-10-31T06:28:54;13.87;;;5.90;;
48685;SDS011;34485;51.536;3.816;2023-10-31T06:31:20;13.05;;;6.85;;
48685;SDS011;34485;51.536;3.816;2023-10-31T06:33:46;14.13;;;6.57;;
48685;SDS011;34485;51.536;3.816;2023-10-31T06:36:11;19.85;;;6.78;;
48685;SDS011;34485;51.536;3.816;2023-10-31T06:38:37;14.70;;;7.63;;
48685;SDS011;34485;51.536;3.816;2023-10-31T06:41:03;29.80;;;6.45;;
48685;SDS011;34485;51.536;3.816;2023-10-31T06:43:29;20.13;;;7.40;;
48685;SDS011;34485;51.536;3.816;2023-10-31T06:45:54;17.30;;;6.40;;
48685;SDS011;34485;51.536;3.816;2023-10-31T06:48:20;14.27;;;7.30;;
48685;SDS011;34485;51.536;3.816;2023-10-31T06:50:46;16.30;;;6.97;;
48685;SDS011;34485;51.536;3.816;2023-10-31T06:53:11;14.43;;;7.23;;
48685;SDS011;34485;51.536;3.816;2023-10-31T06:55:37;19.45;;;7.05;;
48685;SDS011;34485;51.536;3.816;2023-10-31T06:58:03;16.63;;;7.27;;
48685;SDS011;34485;51.536;3.816;2023-10-31T07:00:28;14.32;;;7.72;;
48685;SDS011;34485;51.536;3.816;2023-10-31T07:02:54;15.20;;;7.73;;
48685;SDS011;34485;51.536;3.816;2023-10-31T07:05:20;16.27;;;8.90;;
48685;SDS011;34485;51.536;3.816;2023-10-31T07:07:46;19.20;;;9.30;;
48685;SDS011;34485;51.536;3.816;2023-10-31T07:10:12;17.60;;;8.57;;
48685;SDS011;34485;51.536;3.816;2023-10-31T07:12:38;23.98;;;10.07;;
48685;SDS011;34485;51.536;3.816;2023-10-31T07:15:04;25.35;;;10.23;;
48685;SDS011;34485;51.536;3.816;2023-10-31T07:17:30;26.00;;;9.87;;
48685;SDS011;34485;51.536;3.816;2023-10-31T07:19:55;24.65;;;11.48;;
48685;SDS011;34485;51.536;3.816;2023-10-31T07:22:21;27.63;;;11.83;;
48685;SDS011;34485;51.536;3.816;2023-10-31T07:24:51;28.27;;;11.45;;
48685;SDS011;34485;51.536;3.816;2023-10-31T07:27:17;27.80;;;12.32;;
48685;SDS011;34485;51.536;3.816;2023-10-31T07:29:43;18.63;;;11.90;;
48685;SDS011;34485;51.536;3.816;2023-10-31T07:32:09;24.95;;;12.27;;
48685;SDS011;34485;51.536;3.816;2023-10-31T07:34:35;26.70;;;12.70;;
48685;SDS011;34485;51.536;3.816;2023-10-31T07:37:01;26.98;;;12.18;;
48685;SDS011;34485;51.536;3.816;2023-10-31T07:39:27;25.67;;;11.68;;
48685;SDS011;34485;51.536;3.816;2023-10-31T07:41:52;32.03;;;14.60;;
48685;SDS011;34485;51.536;3.816;2023-10-31T07:44:18;25.38;;;12.95;;
48685;SDS011;34485;51.536;3.816;2023-10-31T07:46:44;19.50;;;12.87;;
48685;SDS011;34485;51.536;3.816;2023-10-31T07:49:09;18.73;;;10.63;;
48685;SDS011;34485;51.536;3.816;2023-10-31T07:51:35;13.40;;;10.07;;
48685;SDS011;34485;51.536;3.816;2023-10-31T07:54:01;12.60;;;8.68;;
48685;SDS011;34485;51.536;3.816;2023-10-31T07:56:27;11.33;;;7.77;;
48685;SDS011;34485;51.536;3.816;2023-10-31T07:58:53;7.78;;;6.93;;
48685;SDS011;34485;51.536;3.816;2023-10-31T08:01:19;13.23;;;7.85;;
48685;SDS011;34485;51.536;3.816;2023-10-31T08:03:46;10.50;;;7.28;;
48685;SDS011;34485;51.536;3.816;2023-10-31T08:06:12;10.33;;;7.57;;
48685;SDS011;34485;51.536;3.816;2023-10-31T08:08:38;8.60;;;7.13;;
48685;SDS011;34485;51.536;3.816;2023-10-31T08:11:07;10.90;;;7.45;;
48685;SDS011;34485;51.536;3.816;2023-10-31T08:13:33;8.33;;;7.47;;
48685;SDS011;34485;51.536;3.816;2023-10-31T08:15:58;8.90;;;7.75;;
48685;SDS011;34485;51.536;3.816;2023-10-31T08:18:24;9.07;;;7.57;;
48685;SDS011;34485;51.536;3.816;2023-10-31T08:20:50;9.65;;;8.70;;
48685;SDS011;34485;51.536;3.816;2023-10-31T08:23:19;11.53;;;9.00;;
48685;SDS011;34485;51.536;3.816;2023-10-31T08:25:44;11.07;;;9.32;;
48685;SDS011;34485;51.536;3.816;2023-10-31T08:28:10;10.93;;;9.83;;
48685;SDS011;34485;51.536;3.816;2023-10-31T08:30:36;12.75;;;11.40;;
48685;SDS011;34485;51.536;3.816;2023-10-31T08:33:03;19.30;;;15.10;;
48685;SDS011;34485;51.536;3.816;2023-10-31T08:35:29;41.63;;;21.25;;
48685;SDS011;34485;51.536;3.816;2023-10-31T08:37:54;44.00;;;24.77;;
48685;SDS011;34485;51.536;3.816;2023-10-31T08:40:20;40.38;;;25.17;;
48685;SDS011;34485;51.536;3.816;2023-10-31T08:42:46;36.20;;;21.77;;
48685;SDS011;34485;51.536;3.816;2023-10-31T08:45:11;30.63;;;19.35;;
48685;SDS011;34485;51.536;3.816;2023-10-31T08:47:37;23.27;;;16.13;;
48685;SDS011;34485;51.536;3.816;2023-10-31T08:50:03;22.55;;;17.33;;
48685;SDS011;34485;51.536;3.816;2023-10-31T08:52:29;25.87;;;17.50;;
48685;SDS011;34485;51.536;3.816;2023-10-31T08:54:55;21.30;;;16.45;;
48685;SDS011;34485;51.536;3.816;2023-10-31T08:57:21;28.47;;;17.30;;
48685;SDS011;34485;51.536;3.816;2023-10-31T08:59:47;31.55;;;18.58;;
48685;SDS011;34485;51.536;3.816;2023-10-31T09:02:13;34.42;;;20.65;;
48685;SDS011;34485;51.536;3.816;2023-10-31T09:04:39;27.63;;;18.90;;
48685;SDS011;34485;51.536;3.816;2023-10-31T09:07:04;24.92;;;15.88;;
48685;SDS011;34485;51.536;3.816;2023-10-31T09:09:30;28.57;;;18.07;;
48685;SDS011;34485;51.536;3.816;2023-10-31T09:11:55;25.45;;;16.60;;
48685;SDS011;34485;51.536;3.816;2023-10-31T09:14:21;20.40;;;14.77;;
48685;SDS011;34485;51.536;3.816;2023-10-31T09:16:46;24.30;;;15.03;;
48685;SDS011;34485;51.536;3.816;2023-10-31T09:19:12;20.85;;;15.70;;
48685;SDS011;34485;51.536;3.816;2023-10-31T09:21:38;21.47;;;15.87;;
48685;SDS011;34485;51.536;3.816;2023-10-31T09:24:03;22.65;;;15.73;;
48685;SDS011;34485;51.536;3.816;2023-10-31T09:26:30;25.17;;;16.50;;
48685;SDS011;34485;51.536;3.816;2023-10-31T09:28:56;25.08;;;15.55;;
48685;SDS011;34485;51.536;3.816;2023-10-31T09:31:22;18.70;;;14.43;;
48685;SDS011;34485;51.536;3.816;2023-10-31T09:33:48;18.98;;;14.27;;
48685;SDS011;34485;51.536;3.816;2023-10-31T09:36:14;18.73;;;14.90;;
48685;SDS011;34485;51.536;3.816;2023-10-31T09:38:40;14.87;;;12.83;;
48685;SDS011;34485;51.536;3.816;2023-10-31T09:41:06;14.93;;;12.80;;
48685;SDS011;34485;51.536;3.816;2023-10-31T09:43:31;16.47;;;13.40;;
48685;SDS011;34485;51.536;3.816;2023-10-31T09:45:57;17.23;;;14.38;;
48685;SDS011;34485;51.536;3.816;2023-10-31T09:48:25;21.67;;;16.20;;
48685;SDS011;34485;51.536;3.816;2023-10-31T09:50:51;24.43;;;17.87;;
48685;SDS011;34485;51.536;3.816;2023-10-31T09:53:18;26.52;;;19.95;;
48685;SDS011;34485;51.536;3.816;2023-10-31T09:55:45;29.27;;;20.98;;
48685;SDS011;34485;51.536;3.816;2023-10-31T09:58:14;25.77;;;19.63;;
48685;SDS011;34485;51.536;3.816;2023-10-31T10:00:39;27.60;;;20.97;;
48685;SDS011;34485;51.536;3.816;2023-10-31T10:03:08;26.57;;;19.33;;
48685;SDS011;34485;51.536;3.816;2023-10-31T10:05:36;32.47;;;23.67;;
48685;SDS011;34485;51.536;3.816;2023-10-31T10:08:06;33.92;;;24.40;;
48685;SDS011;34485;51.536;3.816;2023-10-31T10:10:33;27.83;;;21.10;;
48685;SDS011;34485;51.536;3.816;2023-10-31T10:12:59;30.00;;;21.50;;
48685;SDS011;34485;51.536;3.816;2023-10-31T10:15:28;33.88;;;20.25;;
48685;SDS011;34485;51.536;3.816;2023-10-31T10:17:53;31.70;;;21.58;;
48685;SDS011;34485;51.536;3.816;2023-10-31T10:20:19;34.13;;;26.00;;
48685;SDS011;34485;51.536;3.816;2023-10-31T10:22:45;35.88;;;24.15;;
48685;SDS011;34485;51.536;3.816;2023-10-31T10:25:15;27.65;;;22.60;;
48685;SDS011;34485;51.536;3.816;2023-10-31T10:27:45;28.08;;;23.17;;
48685;SDS011;34485;51.536;3.816;2023-10-31T10:30:12;26.70;;;22.33;;
48685;SDS011;34485;51.536;3.816;2023-10-31T10:32:38;30.13;;;19.17;;
48685;SDS011;34485;51.536;3.816;2023-10-31T10:35:04;22.73;;;18.23;;
48685;SDS011;34485;51.536;3.816;2023-10-31T10:37:31;21.87;;;16.87;;
48685;SDS011;34485;51.536;3.816;2023-10-31T10:39:57;21.17;;;17.63;;
48685;SDS011;34485;51.536;3.816;2023-10-31T10:45:05;23.63;;;18.55;;
48685;SDS011;34485;51.536;3.816;2023-10-31T10:47:34;23.50;;;19.48;;
48685;SDS011;34485;51.536;3.816;2023-10-31T10:50:03;21.60;;;16.53;;
48685;SDS011;34485;51.536;3.816;2023-10-31T10:52:35;21.10;;;17.15;;
48685;SDS011;34485;51.536;3.816;2023-10-31T10:55:12;20.38;;;16.70;;
48685;SDS011;34485;51.536;3.816;2023-10-31T11:00:37;20.42;;;15.98;;
48685;SDS011;34485;51.536;3.816;2023-10-31T11:03:05;20.50;;;14.90;;
48685;SDS011;34485;51.536;3.816;2023-10-31T11:05:32;18.67;;;14.68;;
48685;SDS011;34485;51.536;3.816;2023-10-31T11:07:58;19.58;;;15.85;;
48685;SDS011;34485;51.536;3.816;2023-10-31T11:10:25;19.65;;;14.95;;
48685;SDS011;34485;51.536;3.816;2023-10-31T11:12:52;18.45;;;15.60;;
48685;SDS011;34485;51.536;3.816;2023-10-31T11:15:18;18.70;;;16.23;;
48685;SDS011;34485;51.536;3.816;2023-10-31T11:17:45;26.20;;;15.50;;
48685;SDS011;34485;51.536;3.816;2023-10-31T11:20:13;20.77;;;14.27;;
48685;SDS011;34485;51.536;3.816;2023-10-31T11:22:41;23.58;;;14.43;;
48685;SDS011;34485;51.536;3.816;2023-10-31T11:25:28;18.92;;;14.73;;
48685;SDS011;34485;51.536;3.816;2023-10-31T11:27:57;18.17;;;14.37;;
48685;SDS011;34485;51.536;3.816;2023-10-31T11:30:35;19.05;;;13.90;;
48685;SDS011;34485;51.536;3.816;2023-10-31T11:33:01;17.80;;;15.40;;
48685;SDS011;34485;51.536;3.816;2023-10-31T11:35:34;17.05;;;14.95;;
48685;SDS011;34485;51.536;3.816;2023-10-31T11:38:01;22.73;;;15.53;;
48685;SDS011;34485;51.536;3.816;2023-10-31T11:40:28;21.17;;;16.02;;
48685;SDS011;34485;51.536;3.816;2023-10-31T11:42:58;21.58;;;14.68;;
48685;SDS011;34485;51.536;3.816;2023-10-31T11:47:53;18.95;;;14.18;;
48685;SDS011;34485;51.536;3.816;2023-10-31T11:50:20;19.80;;;14.53;;
48685;SDS011;34485;51.536;3.816;2023-10-31T11:52:59;21.13;;;15.68;;
48685;SDS011;34485;51.536;3.816;2023-10-31T11:55:25;18.48;;;14.52;;
48685;SDS011;34485;51.536;3.816;2023-10-31T11:57:51;21.52;;;16.08;;
48685;SDS011;34485;51.536;3.816;2023-10-31T12:00:21;25.23;;;17.70;;
48685;SDS011;34485;51.536;3.816;2023-10-31T12:02:57;24.42;;;16.88;;
48685;SDS011;34485;51.536;3.816;2023-10-31T12:05:26;22.55;;;15.93;;
48685;SDS011;34485;51.536;3.816;2023-10-31T12:07:53;22.40;;;15.27;;
48685;SDS011;34485;51.536;3.816;2023-10-31T12:10:26;22.13;;;15.23;;
48685;SDS011;34485;51.536;3.816;2023-10-31T12:12:55;19.50;;;15.57;;
48685;SDS011;34485;51.536;3.816;2023-10-31T12:15:21;20.52;;;15.00;;
48685;SDS011;34485;51.536;3.816;2023-10-31T12:17:47;23.92;;;16.13;;
48685;SDS011;34485;51.536;3.816;2023-10-31T12:20:14;20.90;;;14.10;;
48685;SDS011;34485;51.536;3.816;2023-10-31T12:22:41;19.83;;;14.77;;
48685;SDS011;34485;51.536;3.816;2023-10-31T12:25:07;20.90;;;14.40;;
48685;SDS011;34485;51.536;3.816;2023-10-31T12:27:46;23.42;;;14.95;;
48685;SDS011;34485;51.536;3.816;2023-10-31T12:30:15;19.40;;;12.87;;
48685;SDS011;34485;51.536;3.816;2023-10-31T12:32:42;24.08;;;15.65;;
48685;SDS011;34485;51.536;3.816;2023-10-31T12:35:10;21.02;;;14.57;;
48685;SDS011;34485;51.536;3.816;2023-10-31T12:37:48;22.42;;;14.63;;
48685;SDS011;34485;51.536;3.816;2023-10-31T12:40:17;30.40;;;14.60;;
48685;SDS011;34485;51.536;3.816;2023-10-31T12:42:44;22.23;;;14.20;;
48685;SDS011;34485;51.536;3.816;2023-10-31T12:45:14;19.50;;;13.43;;
48685;SDS011;34485;51.536;3.816;2023-10-31T12:47:42;18.40;;;13.88;;
48685;SDS011;34485;51.536;3.816;2023-10-31T12:52:50;18.95;;;12.40;;
48685;SDS011;34485;51.536;3.816;2023-10-31T12:55:20;19.20;;;12.03;;
48685;SDS011;34485;51.536;3.816;2023-10-31T12:57:47;17.02;;;12.85;;
48685;SDS011;34485;51.536;3.816;2023-10-31T13:00:14;18.90;;;13.27;;
48685;SDS011;34485;51.536;3.816;2023-10-31T13:02:44;17.38;;;12.73;;
48685;SDS011;34485;51.536;3.816;2023-10-31T13:05:10;19.95;;;13.38;;
48685;SDS011;34485;51.536;3.816;2023-10-31T13:07:38;18.37;;;13.00;;
48685;SDS011;34485;51.536;3.816;2023-10-31T13:10:04;22.50;;;14.23;;
48685;SDS011;34485;51.536;3.816;2023-10-31T13:12:31;25.08;;;15.05;;
48685;SDS011;34485;51.536;3.816;2023-10-31T13:14:57;17.77;;;13.55;;
48685;SDS011;34485;51.536;3.816;2023-10-31T13:17:22;23.30;;;14.63;;
48685;SDS011;34485;51.536;3.816;2023-10-31T13:19:48;18.85;;;12.48;;
48685;SDS011;34485;51.536;3.816;2023-10-31T13:22:14;18.73;;;12.27;;
48685;SDS011;34485;51.536;3.816;2023-10-31T13:24:39;18.47;;;12.47;;
48685;SDS011;34485;51.536;3.816;2023-10-31T13:27:05;17.87;;;12.63;;
48685;SDS011;34485;51.536;3.816;2023-10-31T13:29:31;22.38;;;12.73;;
48685;SDS011;34485;51.536;3.816;2023-10-31T13:31:58;16.08;;;12.32;;
48685;SDS011;34485;51.536;3.816;2023-10-31T13:34:24;15.87;;;12.37;;
48685;SDS011;34485;51.536;3.816;2023-10-31T13:36:49;17.05;;;11.27;;
48685;SDS011;34485;51.536;3.816;2023-10-31T13:39:15;16.83;;;12.33;;
48685;SDS011;34485;51.536;3.816;2023-10-31T13:41:40;13.50;;;9.95;;
48685;SDS011;34485;51.536;3.816;2023-10-31T13:44:06;16.57;;;12.10;;
48685;SDS011;34485;51.536;3.816;2023-10-31T13:46:32;17.10;;;10.90;;
48685;SDS011;34485;51.536;3.816;2023-10-31T13:48:57;16.90;;;11.15;;
48685;SDS011;34485;51.536;3.816;2023-10-31T13:51:23;15.00;;;11.63;;
48685;SDS011;34485;51.536;3.816;2023-10-31T13:53:48;13.70;;;11.93;;
48685;SDS011;34485;51.536;3.816;2023-10-31T13:56:15;15.13;;;10.67;;
48685;SDS011;34485;51.536;3.816;2023-10-31T13:58:42;22.58;;;12.07;;
48685;SDS011;34485;51.536;3.816;2023-10-31T14:01:07;13.65;;;9.73;;
48685;SDS011;34485;51.536;3.816;2023-10-31T14:03:33;13.80;;;10.67;;
48685;SDS011;34485;51.536;3.816;2023-10-31T14:05:59;13.67;;;11.83;;
48685;SDS011;34485;51.536;3.816;2023-10-31T14:08:24;14.83;;;11.07;;
48685;SDS011;34485;51.536;3.816;2023-10-31T14:10:50;14.53;;;10.90;;
48685;SDS011;34485;51.536;3.816;2023-10-31T14:13:16;12.05;;;10.43;;
48685;SDS011;34485;51.536;3.816;2023-10-31T14:15:42;10.60;;;9.60;;
48685;SDS011;34485;51.536;3.816;2023-10-31T14:18:07;13.83;;;9.30;;
48685;SDS011;34485;51.536;3.816;2023-10-31T14:20:33;12.13;;;9.07;;
48685;SDS011;34485;51.536;3.816;2023-10-31T14:22:59;10.65;;;8.57;;
48685;SDS011;34485;51.536;3.816;2023-10-31T14:25:24;9.67;;;8.03;;
48685;SDS011;34485;51.536;3.816;2023-10-31T14:27:50;8.55;;;7.75;;
48685;SDS011;34485;51.536;3.816;2023-10-31T14:30:15;8.87;;;7.20;;
48685;SDS011;34485;51.536;3.816;2023-10-31T14:32:41;8.90;;;7.73;;
48685;SDS011;34485;51.536;3.816;2023-10-31T14:35:07;8.15;;;7.00;;
48685;SDS011;34485;51.536;3.816;2023-10-31T14:37:33;9.88;;;7.68;;
48685;SDS011;34485;51.536;3.816;2023-10-31T14:40:00;8.97;;;6.23;;